Time;durP1;ratioP1;P1;durP2;ratioP2;P2;SDS_P1;SDS_P2;PMS_P1;PMS_P2;Temp;Humidity;BMP_temperature;BMP_pressure;BME280_temperature;BME280_humidity;BME280_pressure;Samples;Min_cycle;Max_cycle;Signal;HPM_P1;HPM_P2
2021/12/14 00:01:49;;;;;;;148.02;27.33;;;7.50;99.90;;;5.93;100.00;102275.13;4997643;28;20048;-81
2021/12/14 00:04:25;;;;;;;131.27;26.35;;;7.50;99.90;;;5.95;100.00;102317.00;5027925;28;20032;-81
2021/12/14 00:06:56;;;;;;;134.65;27.42;;;;;;;5.95;100.00;102317.88;4977927;28;20036;-81
2021/12/14 00:09:30;;;;;;;135.15;27.00;;;7.50;99.90;;;5.97;100.00;102322.25;5001549;28;20479;-81
2021/12/14 00:15:30;;;;;;;140.40;25.38;;;7.50;99.90;;;5.96;100.00;102337.03;4893173;28;20111;-81
2021/12/14 00:18:10;;;;;;;130.70;25.30;;;7.50;99.90;;;5.98;100.00;102339.66;4895008;28;20035;-81
2021/12/14 00:20:54;;;;;;;125.00;25.90;;;7.60;99.90;;;5.97;100.00;102286.50;4892698;28;20653;-82
2021/12/14 00:26:23;;;;;;;126.68;24.75;;;7.50;99.90;;;5.97;100.00;102328.34;4972194;28;20057;-81
2021/12/14 00:28:50;;;;;;;148.90;27.48;;;7.50;99.90;;;5.98;100.00;102329.19;4949906;28;20048;-81
2021/12/14 00:31:19;;;;;;;140.32;26.33;;;7.50;99.90;;;5.95;100.00;102320.47;4950589;28;20025;-80
2021/12/14 00:34:00;;;;;;;155.20;27.35;;;7.50;99.90;;;5.94;100.00;102326.59;4961331;28;20036;-81
2021/12/14 00:36:29;;;;;;;164.27;27.33;;;7.50;99.90;;;5.95;100.00;102288.25;4973750;28;20037;-81
2021/12/14 00:38:57;;;;;;;160.77;27.13;;;7.50;99.90;;;5.98;100.00;102306.53;4943909;28;20497;-81
2021/12/14 00:41:34;;;;;;;154.23;28.63;;;7.50;99.90;;;5.94;100.00;102307.41;4944321;28;20034;-82
2021/12/14 00:44:00;;;;;;;147.07;27.08;;;7.50;99.90;;;5.93;100.00;102306.50;4964261;28;20033;-80
2021/12/14 00:46:28;;;;;;;182.65;29.33;;;7.60;99.90;;;5.99;100.00;102304.81;4956465;28;20021;-81
2021/12/14 00:48:54;;;;;;;153.88;27.27;;;7.50;99.90;;;5.95;100.00;102299.56;4962937;28;20044;-81
2021/12/14 00:51:28;;;;;;;151.20;28.50;;;7.60;99.90;;;5.99;100.00;102304.81;4975642;28;20032;-81
2021/12/14 00:53:59;;;;;;;144.90;28.75;;;7.50;99.90;;;5.95;100.00;102310.03;4962410;28;20087;-82
2021/12/14 00:56:33;;;;;;;162.65;28.45;;;7.60;99.90;;;5.94;100.00;102303.06;4964045;28;20036;-81
2021/12/14 00:59:13;;;;;;;163.57;27.67;;;7.50;99.90;;;5.94;100.00;102292.59;5045119;28;20040;-81
2021/12/14 01:04:47;;;;;;;160.52;26.60;;;7.50;99.90;;;5.92;100.00;102293.47;4961837;23;20068;-81
2021/12/14 01:07:17;;;;;;;162.35;29.48;;;7.50;99.90;;;5.93;100.00;102279.50;4902456;28;20044;-82
2021/12/14 01:09:57;;;;;;;157.75;28.27;;;7.50;99.90;;;5.94;100.00;102273.41;4943392;28;20870;-81
2021/12/14 01:12:51;;;;;;;161.70;30.75;;;7.50;99.90;;;5.90;100.00;102267.31;4968599;28;20037;-82
2021/12/14 01:16:31;;;;;;;173.55;28.45;;;7.40;99.90;;;5.89;100.00;102264.69;4982653;28;20029;-81
2021/12/14 01:27:21;;;;;;;153.52;29.23;;;7.40;99.90;;;5.81;100.00;102269.94;4950737;28;20978;-82
2021/12/14 01:29:52;;;;;;;161.27;28.27;;;;;;;5.77;100.00;102283.91;4910559;28;20040;-81
2021/12/14 01:32:21;;;;;;;141.68;27.80;;;7.40;99.90;;;5.77;100.00;102252.53;4926311;28;20029;-80
2021/12/14 01:34:47;;;;;;;178.98;29.95;;;7.30;99.90;;;5.78;100.00;102228.13;4933793;28;20538;-81
2021/12/14 01:37:23;;;;;;;166.13;30.55;;;7.40;99.90;;;5.79;100.00;102235.09;4945788;28;20030;-81
2021/12/14 01:42:28;;;;;;;158.32;27.48;;;7.30;99.90;;;5.71;100.00;102232.50;4982497;23;19935;-81
2021/12/14 01:45:18;;;;;;;162.32;29.55;;;7.30;99.90;;;5.68;100.00;102222.06;4969452;28;20687;-81
2021/12/14 01:47:58;;;;;;;179.55;30.70;;;7.30;99.90;;;5.68;100.00;102226.41;4970041;28;20048;-81
2021/12/14 01:50:46;;;;;;;172.65;29.38;;;7.30;99.90;;;5.66;100.00;102230.75;4956177;28;20044;-81
2021/12/14 01:53:22;;;;;;;153.18;27.80;;;;;;;5.65;100.00;102231.63;4960427;28;20059;-81
2021/12/14 01:56:00;;;;;;;155.93;28.73;;;7.20;99.90;;;5.66;100.00;102234.25;5015756;28;20483;-81
2021/12/14 01:58:40;;;;;;;167.82;29.63;;;7.30;99.90;;;5.64;100.00;102216.84;5005637;28;20044;-82
2021/12/14 02:01:20;;;;;;;173.57;31.27;;;7.20;99.90;;;5.66;100.00;102222.91;4988335;28;20036;-81
2021/12/14 02:04:00;;;;;;;173.82;29.63;;;7.20;99.90;;;5.63;100.00;102222.94;4986224;28;20036;-81
2021/12/14 02:06:38;;;;;;;156.32;29.33;;;7.30;99.90;;;5.67;100.00;102219.44;4985447;28;20058;-81
2021/12/14 02:09:29;;;;;;;156.57;28.83;;;7.20;99.90;;;5.62;100.00;102224.69;4958643;28;20041;-81
2021/12/14 02:12:02;;;;;;;168.13;28.52;;;7.20;99.90;;;5.63;100.00;102222.94;4984693;28;21683;-81
2021/12/14 02:14:29;;;;;;;183.18;30.13;;;7.20;99.90;;;5.62;100.00;102216.84;4993861;28;20131;-82
2021/12/14 02:17:01;;;;;;;159.43;30.67;;;7.20;99.90;;;5.63;100.00;102217.72;5003217;28;22736;-81
2021/12/14 02:19:30;;;;;;;169.65;30.58;;;7.20;99.90;;;5.61;100.00;102209.00;4970236;28;20046;-81
2021/12/14 02:22:02;;;;;;;170.50;29.30;;;7.20;99.90;;;5.64;100.00;102203.78;4972570;28;20032;-82
2021/12/14 02:24:32;;;;;;;157.40;29.73;;;7.20;99.90;;;5.66;100.00;102202.91;4951065;28;20033;-81
2021/12/14 02:26:59;;;;;;;173.13;29.25;;;7.20;99.90;;;5.59;100.00;102192.44;4981411;28;20112;-82
2021/12/14 02:29:34;;;;;;;178.80;29.90;;;7.20;99.90;;;5.60;100.00;102191.59;4969998;28;20021;-80
2021/12/14 02:32:13;;;;;;;169.23;29.95;;;7.20;99.90;;;5.60;100.00;102184.63;4976630;28;20029;-81
2021/12/14 02:34:50;;;;;;;173.40;30.08;;;7.20;99.90;;;5.55;100.00;102171.56;4998024;28;20068;-81
2021/12/14 02:37:57;;;;;;;186.15;31.30;;;7.20;99.90;;;5.50;100.00;102165.47;4967019;28;20148;-81
2021/12/14 02:40:57;;;;;;;177.10;30.58;;;7.10;99.90;;;5.46;100.00;102168.97;4997606;28;20035;-81
2021/12/14 02:43:54;;;;;;;177.35;29.55;;;7.10;99.90;;;5.45;100.00;102163.75;5011412;28;20056;-81
2021/12/14 02:46:40;;;;;;;159.32;28.55;;;7.00;99.90;;;5.43;100.00;102155.06;4982662;28;20561;-82
2021/12/14 02:49:13;;;;;;;164.60;29.13;;;7.00;99.90;;;5.39;100.00;102150.72;5060238;28;20388;-80
2021/12/14 02:51:56;;;;;;;170.80;29.55;;;7.00;99.90;;;5.40;100.00;102155.94;5015663;28;20041;-81
2021/12/14 02:54:31;;;;;;;180.77;29.77;;;7.00;99.90;;;5.39;100.00;102142.88;5035112;28;20057;-81
2021/12/14 02:57:18;;;;;;;179.50;31.48;;;7.00;99.90;;;5.40;100.00;102141.97;4967225;28;20460;-81
2021/12/14 02:59:47;;;;;;;175.93;29.27;;;7.00;99.90;;;5.40;100.00;102147.22;4958754;28;20044;-80
2021/12/14 03:02:24;;;;;;;174.30;30.98;;;7.00;99.90;;;5.41;100.00;102141.13;4979973;22;20650;-82
2021/12/14 03:05:06;;;;;;;184.15;30.63;;;7.00;99.90;;;5.39;100.00;102135.91;4946595;28;20084;-81
2021/12/14 03:07:51;;;;;;;176.80;30.75;;;7.00;99.90;;;5.37;100.00;102137.63;4937639;28;20432;-82
2021/12/14 03:10:38;;;;;;;174.23;31.17;;;;;;;5.40;100.00;102131.53;4979955;28;20068;-81
2021/12/14 03:13:10;;;;;;;151.32;29.00;;;7.00;99.90;;;5.42;100.00;102125.47;5002837;28;20397;-81
2021/12/14 03:15:52;;;;;;;173.40;30.27;;;7.10;99.90;;;5.44;100.00;102121.09;4923465;28;20178;-81
2021/12/14 03:18:28;;;;;;;171.55;31.35;;;7.10;99.90;;;5.49;100.00;102129.78;4911833;28;20030;-81
2021/12/14 03:21:09;;;;;;;172.95;31.20;;;7.10;99.90;;;5.49;100.00;102123.69;4925647;28;20116;-82
2021/12/14 03:24:16;;;;;;;171.07;30.17;;;7.10;99.90;;;5.54;100.00;102135.84;4928771;28;20049;-82
2021/12/14 03:26:57;;;;;;;151.05;28.20;;;7.10;99.90;;;5.53;100.00;102128.91;4931471;28;20068;-81
2021/12/14 03:29:32;;;;;;;173.55;31.25;;;7.10;99.90;;;5.53;100.00;102112.38;4917676;28;20788;-81
2021/12/14 03:31:59;;;;;;;159.73;30.45;;;7.10;99.90;;;5.58;100.00;102120.19;4908124;28;20081;-81
2021/12/14 03:34:37;;;;;;;178.85;32.42;;;7.20;99.90;;;5.53;100.00;102107.13;4896409;28;20037;-81
2021/12/14 03:37:19;;;;;;;175.00;29.92;;;7.10;99.90;;;5.54;100.00;102093.19;4894707;28;20022;-81
2021/12/14 03:39:58;;;;;;;165.55;30.35;;;7.20;99.90;;;5.56;100.00;102096.66;4944566;28;20030;-81
2021/12/14 03:42:40;;;;;;;161.82;31.52;;;7.20;99.90;;;5.55;100.00;102080.13;4925306;23;20612;-81
2021/12/14 03:45:20;;;;;;;180.68;31.80;;;7.20;99.90;;;5.55;100.00;102084.47;4977251;28;20043;-81
2021/12/14 03:48:01;;;;;;;166.95;31.98;;;7.10;99.90;;;5.53;100.00;102083.63;4973429;28;20555;-82
2021/12/14 03:50:41;;;;;;;171.02;32.42;;;7.10;99.90;;;5.58;100.00;102094.06;5008576;28;20033;-81
2021/12/14 03:53:11;;;;;;;162.80;31.85;;;7.10;99.90;;;5.55;100.00;102085.34;4964269;28;20110;-82
2021/12/14 03:55:44;;;;;;;163.70;32.55;;;7.20;99.90;;;5.57;100.00;102060.94;4923904;28;20030;-82
2021/12/14 03:58:37;;;;;;;164.18;32.47;;;7.20;99.90;;;5.58;100.00;102073.16;4928546;28;20619;-82
2021/12/14 04:01:19;;;;;;;170.60;31.35;;;7.20;99.90;;;5.55;100.00;102077.50;4943607;28;20081;-81
2021/12/14 04:03:49;;;;;;;169.18;32.17;;;;;;;5.58;100.00;102065.31;4923450;28;20039;-81
2021/12/14 04:06:22;;;;;;;164.48;34.00;;;7.20;99.90;;;5.59;100.00;102064.41;4966178;28;20091;-81
2021/12/14 04:08:49;;;;;;;167.57;32.97;;;7.20;99.90;;;5.59;100.00;102040.91;4933475;28;20327;-81
2021/12/14 04:11:17;;;;;;;150.38;32.95;;;7.20;99.90;;;5.58;100.00;102033.94;4929321;28;20057;-81
2021/12/14 04:13:53;;;;;;;160.40;31.48;;;7.20;99.90;;;5.60;100.00;102029.59;4942296;28;20080;-81
2021/12/14 04:16:25;;;;;;;155.00;31.98;;;7.20;99.90;;;5.60;100.00;102040.91;4958184;28;20121;-81
2021/12/14 04:19:02;;;;;;;160.35;31.17;;;7.20;99.90;;;5.61;100.00;102037.41;4970456;28;20025;-81
2021/12/14 04:21:41;;;;;;;147.68;31.25;;;;;;;5.58;100.00;102033.94;4968839;28;20632;-82
2021/12/14 04:24:13;;;;;;;149.65;30.80;;;7.20;99.90;;;5.57;100.00;102035.66;4992619;28;20485;-81
2021/12/14 04:26:45;;;;;;;151.00;31.85;;;7.20;99.90;;;5.55;100.00;102038.31;4941289;28;20038;-80
2021/12/14 04:29:18;;;;;;;136.02;28.60;;;7.20;99.90;;;5.57;100.00;102034.81;4946944;28;20029;-81
2021/12/14 04:31:46;;;;;;;145.82;30.15;;;7.20;99.90;;;5.55;100.00;102025.25;4953022;28;20060;-82
2021/12/14 04:34:24;;;;;;;135.25;29.50;;;7.20;99.90;;;5.53;100.00;102028.75;4932769;28;20045;-81
2021/12/14 04:36:53;;;;;;;145.07;30.67;;;7.10;99.90;;;5.52;100.00;102030.47;4953947;28;20509;-81
2021/12/14 04:54:00;;;;;;;143.07;29.73;;;7.10;99.90;;;5.52;100.00;102017.41;4892152;28;20107;-81
2021/12/14 04:56:37;;;;;;;134.45;29.35;;;7.10;99.90;;;5.52;100.00;102014.78;4901627;28;20036;-80
2021/12/14 04:59:11;;;;;;;132.27;30.48;;;7.10;99.90;;;5.51;100.00;102012.22;4934384;28;20112;-80
2021/12/14 05:01:51;;;;;;;129.80;30.83;;;7.10;99.90;;;5.51;100.00;102004.38;4954079;28;20044;-80
2021/12/14 05:04:24;;;;;;;121.18;27.85;;;7.10;99.90;;;5.48;100.00;102010.47;4951101;28;20177;-80
2021/12/14 05:07:03;;;;;;;134.13;29.75;;;7.10;99.90;;;5.47;100.00;102020.94;4941910;28;20464;-80
2021/12/14 05:09:37;;;;;;;120.65;28.33;;;7.10;99.90;;;5.48;100.00;102012.22;4949319;28;20509;-80
2021/12/14 05:12:22;;;;;;;131.80;29.30;;;7.10;99.90;;;5.46;100.00;102001.75;4891892;28;20041;-79
2021/12/14 05:14:55;;;;;;;118.00;28.73;;;7.10;99.90;;;5.44;100.00;101993.09;4904551;28;20037;-79
2021/12/14 05:17:31;;;;;;;115.68;29.15;;;7.00;99.90;;;5.43;100.00;101983.50;4931993;28;20031;-80
2021/12/14 05:19:59;;;;;;;121.88;26.67;;;7.10;99.90;;;5.42;100.00;101976.56;4961757;28;20026;-80
2021/12/14 05:22:34;;;;;;;106.20;27.90;;;7.10;99.90;;;5.41;100.00;101985.25;4922761;28;20017;-80
2021/12/14 05:25:24;;;;;;;115.72;26.85;;;7.10;99.90;;;5.43;100.00;101973.06;4910558;28;20033;-80
2021/12/14 05:28:00;;;;;;;110.90;27.90;;;7.10;99.90;;;5.43;100.00;101964.34;4928707;28;20021;-79
2021/12/14 05:30:36;;;;;;;110.60;26.88;;;7.00;99.90;;;5.44;100.00;101961.75;4949835;28;20025;-80
2021/12/14 05:33:24;;;;;;;111.57;27.23;;;7.00;99.90;;;5.42;100.00;101950.44;4935459;28;20046;-80
2021/12/14 05:35:57;;;;;;;98.40;26.25;;;7.10;99.90;;;5.44;100.00;101951.28;4945349;28;20378;-80
2021/12/14 05:38:42;;;;;;;104.32;25.45;;;7.00;99.90;;;5.41;100.00;101938.22;4937203;28;20029;-79
2021/12/14 05:43:58;;;;;;;87.63;24.40;;;7.00;99.90;;;5.50;100.00;101943.41;4926082;28;20472;-80
2021/12/14 05:46:26;;;;;;;86.07;24.27;;;7.00;99.90;;;5.47;100.00;101927.75;4987897;28;20036;-79
2021/12/14 05:49:06;;;;;;;101.82;25.58;;;7.10;99.90;;;5.44;100.00;101927.78;4984500;28;20127;-80
2021/12/14 05:51:33;;;;;;;93.25;24.73;;;7.10;99.90;;;5.47;100.00;101930.38;4948500;28;20862;-80
2021/12/14 05:54:06;;;;;;;92.72;27.35;;;7.10;99.90;;;5.48;100.00;101926.00;4937381;28;20053;-80
2021/12/14 05:56:34;;;;;;;101.65;26.20;;;7.10;99.90;;;5.49;100.00;101912.94;4916068;28;20057;-80
2021/12/14 05:59:02;;;;;;;92.68;25.05;;;7.00;99.90;;;5.47;100.00;101909.47;4915364;28;20116;-80
2021/12/14 06:01:33;;;;;;;90.07;25.00;;;7.10;99.90;;;5.44;100.00;101899.06;4925175;28;20039;-80
2021/12/14 06:04:07;;;;;;;83.85;24.73;;;7.00;99.90;;;5.49;100.00;101889.44;4960391;28;20035;-80
2021/12/14 06:06:58;;;;;;;89.72;23.75;;;7.10;99.90;;;5.49;100.00;101892.03;4951988;28;20028;-81
2021/12/14 06:09:36;;;;;;;79.55;23.27;;;7.10;99.90;;;5.47;100.00;101891.19;4935572;28;20120;-80
2021/12/14 06:12:13;;;;;;;82.50;22.05;;;7.10;99.90;;;5.46;100.00;101888.56;4986072;28;20022;-79
2021/12/14 06:14:50;;;;;;;76.72;23.83;;;7.00;99.90;;;5.49;100.00;101886.81;4958932;28;20039;-81
2021/12/14 06:17:40;;;;;;;81.80;23.33;;;7.10;99.90;;;5.48;100.00;101882.44;4900033;28;20045;-79
2021/12/14 06:20:20;;;;;;;81.70;23.13;;;7.10;99.90;;;5.49;100.00;101885.94;4963975;28;20092;-80
2021/12/14 06:22:52;;;;;;;76.93;21.38;;;7.10;99.90;;;5.45;100.00;101887.72;4920884;28;20038;-81
2021/12/14 06:25:27;;;;;;;77.82;21.88;;;7.10;99.90;;;5.44;100.00;101892.94;4912842;28;20044;-80
2021/12/14 06:27:58;;;;;;;59.65;19.80;;;7.10;99.90;;;5.47;100.00;101888.56;4935799;28;20130;-81
2021/12/14 06:30:28;;;;;;;67.85;22.00;;;7.10;99.90;;;5.47;100.00;101887.72;4937808;28;20030;-80
2021/12/14 06:33:20;;;;;;;73.90;21.75;;;7.10;99.90;;;5.46;100.00;101880.72;5006401;28;20044;-80
2021/12/14 06:35:50;;;;;;;81.32;22.92;;;;;;;5.47;100.00;101896.41;4946996;28;20125;-80
2021/12/14 06:38:26;;;;;;;75.13;21.23;;;;;;;5.44;100.00;101880.75;4970223;28;20103;-80
2021/12/14 06:41:05;;;;;;;72.10;20.70;;;7.10;99.90;;;5.48;100.00;101885.06;4956195;28;20455;-80
2021/12/14 06:44:02;;;;;;;66.32;23.08;;;7.10;99.90;;;5.49;100.00;101876.38;4960781;28;20053;-80
2021/12/14 06:46:37;;;;;;;65.22;20.52;;;7.10;99.90;;;5.49;100.00;101885.94;4939869;28;20104;-80
2021/12/14 06:49:10;;;;;;;64.60;21.27;;;7.10;99.90;;;5.48;100.00;101879.84;4961555;28;20108;-80
2021/12/14 06:51:43;;;;;;;56.22;18.63;;;7.10;99.90;;;5.51;100.00;101879.84;4944034;28;20504;-79
2021/12/14 06:54:19;;;;;;;60.78;19.67;;;7.10;99.90;;;5.49;100.00;101865.91;4974343;28;20058;-80
2021/12/14 06:57:06;;;;;;;59.72;18.92;;;7.10;99.90;;;5.52;100.00;101863.25;4941025;28;20028;-80
2021/12/14 06:59:32;;;;;;;54.53;17.70;;;7.10;99.90;;;5.49;100.00;101855.47;4916690;28;20033;-80
2021/12/14 07:02:08;;;;;;;56.08;18.08;;;7.10;99.90;;;5.50;100.00;101851.09;4920756;28;20112;-80
2021/12/14 07:04:49;;;;;;;50.83;16.08;;;7.10;99.90;;;5.52;100.00;101850.19;4925243;28;20032;-79
2021/12/14 07:07:25;;;;;;;58.28;18.10;;;7.10;99.90;;;5.50;100.00;101851.97;4920642;28;20064;-80
2021/12/14 07:10:00;;;;;;;49.58;17.73;;;7.10;99.90;;;5.52;100.00;101862.41;4968453;28;20407;-80
2021/12/14 07:12:37;;;;;;;53.45;18.25;;;7.40;99.90;;;5.53;100.00;101864.16;4945043;28;20053;-79
2021/12/14 07:15:35;;;;;;;50.05;17.13;;;7.20;99.90;;;5.55;100.00;101871.09;4949287;28;20068;-81
2021/12/14 07:18:10;;;;;;;53.83;18.67;;;7.20;99.90;;;5.58;100.00;101874.56;4917264;28;20095;-80
2021/12/14 07:20:49;;;;;;;56.67;17.77;;;;;;;5.52;100.00;101871.09;4913943;28;20119;-80
2021/12/14 07:23:26;;;;;;;51.40;17.67;;;7.10;99.90;;;5.52;100.00;101876.31;4917648;28;20885;-81
2021/12/14 07:26:12;;;;;;;44.88;17.25;;;7.10;99.90;;;5.50;100.00;101872.00;4948234;28;20689;-80
2021/12/14 07:29:00;;;;;;;53.00;18.02;;;7.10;99.90;;;5.44;100.00;101867.72;4932555;28;20037;-79
2021/12/14 07:31:27;;;;;;;48.63;16.42;;;7.00;99.90;;;5.44;100.00;101854.66;4965624;28;20653;-80
2021/12/14 07:33:58;;;;;;;47.47;17.00;;;7.10;99.90;;;5.43;100.00;101865.09;4958581;28;20056;-80
2021/12/14 07:36:31;;;;;;;46.95;16.88;;;7.00;99.90;;;5.43;100.00;101870.31;4938843;28;20374;-79
2021/12/14 07:39:14;;;;;;;42.53;16.48;;;7.00;99.90;;;5.44;100.00;101887.72;4949449;28;20041;-80
2021/12/14 07:41:50;;;;;;;47.95;17.15;;;7.00;99.90;;;5.42;100.00;101866.84;4919972;28;20051;-80
2021/12/14 07:44:38;;;;;;;51.78;17.33;;;7.00;99.90;;;5.41;100.00;101862.47;4936799;28;20040;-81
2021/12/14 07:47:18;;;;;;;45.55;16.95;;;7.00;99.90;;;5.38;100.00;101859.91;4950029;28;20044;-80
2021/12/14 07:49:54;;;;;;;52.28;18.23;;;7.00;99.90;;;5.39;100.00;101866.00;4965242;28;20020;-80
2021/12/14 07:52:23;;;;;;;;;;;7.00;99.90;;;5.37;100.00;101866.00;4982558;28;20116;-80
2021/12/14 07:55:01;;;;;;;44.35;15.45;;;7.00;99.90;;;5.37;100.00;101871.22;4951147;28;19909;-80
2021/12/14 07:57:37;;;;;;;42.63;16.15;;;7.00;99.90;;;5.39;100.00;101869.47;4951245;28;20025;-81
2021/12/14 08:00:26;;;;;;;39.58;15.27;;;7.00;99.90;;;5.39;100.00;101879.91;4955903;28;20038;-80
2021/12/14 08:02:57;;;;;;;38.67;14.07;;;7.00;99.90;;;5.39;100.00;101874.69;4926082;28;20041;-80
2021/12/14 08:05:46;;;;;;;44.38;14.63;;;7.00;99.90;;;5.38;100.00;101862.53;4974803;28;20036;-81
2021/12/14 08:08:33;;;;;;;44.35;16.08;;;7.00;99.90;;;5.40;100.00;101852.94;4966192;28;20033;-80
2021/12/14 08:11:27;;;;;;;42.45;15.77;;;7.00;99.90;;;5.43;100.00;101847.66;4907008;28;20207;-80
2021/12/14 08:13:59;;;;;;;37.63;14.88;;;7.10;99.90;;;5.44;100.00;101840.69;4942265;28;20042;-80
2021/12/14 08:16:39;;;;;;;49.17;15.90;;;7.00;99.90;;;5.46;100.00;101852.00;4958558;28;20052;-80
2021/12/14 08:19:14;;;;;;;44.33;15.10;;;7.10;99.90;;;5.54;100.00;101926.81;4928639;28;20544;-81
2021/12/14 08:21:45;;;;;;;41.05;14.68;;;7.20;99.90;;;5.61;100.00;101893.69;4930700;28;20069;-81
2021/12/14 08:24:17;;;;;;;36.00;14.20;;;7.20;99.90;;;5.70;100.00;101978.97;4933719;28;20777;-80
2021/12/14 08:26:55;;;;;;;39.45;14.60;;;7.30;99.90;;;5.75;100.00;102343.16;4945302;28;20517;-80
2021/12/14 08:29:35;;;;;;;36.08;14.50;;;7.40;99.90;;;5.78;100.00;102173.22;4927105;28;20462;-80
2021/12/14 08:32:13;;;;;;;41.50;15.77;;;7.40;99.90;;;5.87;100.00;102117.44;4924805;28;22167;-80
2021/12/14 08:34:45;;;;;;;39.00;14.45;;;7.50;99.90;;;5.93;100.00;102080.81;4946235;28;20624;-80
2021/12/14 08:37:21;;;;;;;38.25;14.75;;;7.50;99.90;;;5.95;100.00;102019.81;4915733;28;20024;-80
2021/12/14 08:39:58;;;;;;;43.47;15.05;;;7.50;99.90;;;5.97;100.00;101998.03;4964116;28;20033;-81
2021/12/14 08:42:52;;;;;;;40.03;15.10;;;7.50;99.90;;;5.97;100.00;101977.97;4943443;28;20044;-80
2021/12/14 08:45:26;;;;;;;36.22;13.30;;;7.50;99.90;;;5.96;100.00;101971.00;4953873;28;20054;-81
2021/12/14 08:48:23;;;;;;;34.50;13.82;;;7.50;99.90;;;5.95;100.00;101964.91;4991552;28;20117;-80
2021/12/14 08:51:01;;;;;;;;;;;7.50;99.90;;;5.95;100.00;101938.75;4974232;28;20509;-81
2021/12/14 08:53:38;;;;;;;34.17;13.20;;;7.50;99.90;;;5.97;100.00;101992.81;4939736;28;20003;-80
2021/12/14 08:56:16;;;;;;;30.48;11.85;;;7.50;99.90;;;5.99;100.00;101929.16;4937786;28;20786;-82
2021/12/14 08:58:52;;;;;;;31.80;12.55;;;7.60;99.90;;;6.01;100.00;101906.47;4943408;28;20468;-81
2021/12/14 09:01:30;;;;;;;31.45;12.98;;;7.60;99.90;;;6.05;100.00;101925.63;4950964;28;20088;-81
2021/12/14 09:04:12;;;;;;;34.53;13.07;;;7.60;99.90;;;6.01;100.00;101953.53;4970035;28;20034;-80
2021/12/14 09:06:47;;;;;;;25.50;12.35;;;7.60;99.90;;;6.01;100.00;101950.06;4925884;28;20034;-82
2021/12/14 09:09:17;;;;;;;30.87;12.10;;;7.60;99.90;;;5.97;100.00;101964.91;4925570;28;20039;-81
2021/12/14 09:12:11;;;;;;;35.83;13.07;;;7.50;99.90;;;5.95;100.00;101962.28;4930811;28;20041;-80
2021/12/14 09:14:39;;;;;;;31.63;13.00;;;;;;;5.99;100.00;101949.22;4996577;28;20818;-81
2021/12/14 09:17:12;;;;;;;30.20;13.23;;;7.60;99.90;;;5.99;100.00;101938.75;4971208;28;20025;-81
2021/12/14 09:20:07;;;;;;;29.10;13.13;;;7.60;99.90;;;6.02;100.00;101920.41;4923970;28;20684;-81
2021/12/14 09:22:41;;;;;;;34.88;12.13;;;7.60;99.90;;;5.99;100.00;101928.28;5008240;28;20091;-81
2021/12/14 09:25:15;;;;;;;36.55;13.77;;;;;;;6.03;100.00;101914.31;4975432;28;20030;-81
2021/12/14 09:27:42;;;;;;;29.17;12.65;;;7.60;99.90;;;6.05;100.00;101909.94;4921618;28;20119;-81
2021/12/14 09:30:15;;;;;;;35.47;12.38;;;7.60;99.90;;;6.08;100.00;101912.50;4956875;28;20040;-81
2021/12/14 09:35:40;;;;;;;26.63;12.05;;;7.60;99.90;;;6.09;100.00;101906.41;4930412;28;20506;-80
2021/12/14 09:38:18;;;;;;;35.33;12.40;;;7.60;99.90;;;6.08;100.00;101894.22;4933975;28;20077;-81
2021/12/14 09:41:00;;;;;;;36.30;12.38;;;7.60;99.90;;;6.08;100.00;101892.47;4929122;28;20030;-81
2021/12/14 09:43:28;;;;;;;36.72;12.43;;;7.70;99.90;;;6.16;100.00;101887.16;4954836;28;20412;-81
2021/12/14 09:46:01;;;;;;;30.95;12.05;;;7.70;99.90;;;6.15;100.00;101885.41;4948845;28;20102;-80
2021/12/14 09:49:00;;;;;;;29.10;12.38;;;7.70;99.90;;;6.11;100.00;101881.09;4957226;28;20060;-81
2021/12/14 09:51:57;;;;;;;24.67;11.25;;;7.70;99.90;;;6.10;100.00;101882.84;4935217;28;20381;-81
2021/12/14 09:54:35;;;;;;;27.75;12.00;;;7.60;99.90;;;6.08;100.00;101897.69;4941941;28;20107;-81
2021/12/14 09:57:47;;;;;;;28.23;11.65;;;7.60;99.90;;;6.02;100.00;101889.03;4926629;28;20029;-80
2021/12/14 10:00:28;;;;;;;24.42;10.23;;;7.60;99.90;;;6.04;100.00;101889.88;4925775;28;20094;-80
2021/12/14 10:03:05;;;;;;;24.65;10.63;;;7.60;99.90;;;6.01;100.00;101879.47;4943730;28;20037;-81
2021/12/14 10:05:50;;;;;;;25.23;10.90;;;7.60;99.90;;;6.02;100.00;101868.13;4934376;28;20089;-82
2021/12/14 10:08:31;;;;;;;28.10;11.50;;;7.60;99.90;;;6.04;100.00;101866.34;4931827;28;20091;-81
2021/12/14 10:11:12;;;;;;;27.77;12.68;;;7.60;99.90;;;6.02;100.00;101858.53;4958968;28;20047;-80
2021/12/14 10:13:47;;;;;;;27.63;11.13;;;7.60;99.90;;;5.99;100.00;101860.31;4987579;28;20049;-81
2021/12/14 10:16:16;;;;;;;30.10;12.07;;;7.50;99.90;;;5.95;100.00;101859.47;4962153;28;20029;-81
2021/12/14 10:19:08;;;;;;;27.73;11.90;;;7.50;99.90;;;5.87;100.00;101856.88;4947926;28;20036;-80
2021/12/14 10:21:41;;;;;;;27.80;12.07;;;;;;;5.84;100.00;101867.38;4940797;28;20034;-81
2021/12/14 10:24:09;;;;;;;32.60;11.35;;;;;;;5.81;100.00;101871.75;4949221;28;20033;-81
2021/12/14 10:26:51;;;;;;;27.83;12.43;;;7.40;99.90;;;5.80;100.00;101890.94;4970037;28;20039;-81
2021/12/14 10:29:21;;;;;;;32.30;12.32;;;7.30;99.90;;;5.79;100.00;101889.19;4936613;28;20037;-81
2021/12/14 10:32:04;;;;;;;30.88;12.40;;;7.30;99.90;;;5.77;100.00;101886.59;4892214;28;20044;-81
2021/12/14 10:34:40;;;;;;;34.45;12.95;;;7.40;99.90;;;5.76;100.00;101885.72;4905196;28;20136;-81
2021/12/14 10:37:19;;;;;;;;;;;;;;;5.80;100.00;101886.56;4948690;28;20022;-82
2021/12/14 10:45:45;;;;;;;32.00;14.07;;;7.30;99.90;;;5.76;100.00;101892.69;4950555;28;20064;-81
2021/12/14 10:48:17;;;;;;;34.85;14.30;;;7.30;99.90;;;5.73;100.00;101890.13;4951626;28;20021;-82
2021/12/14 10:50:55;;;;;;;35.00;14.63;;;7.30;99.90;;;5.73;100.00;101890.13;4934050;28;20040;-82
2021/12/14 10:53:30;;;;;;;39.58;14.90;;;7.30;99.90;;;5.70;100.00;101884.91;4928099;28;20129;-82
2021/12/14 10:56:41;;;;;;;41.83;14.95;;;7.30;99.90;;;5.70;100.00;101896.25;4963351;28;20031;-81
2021/12/14 10:59:19;;;;;;;37.92;13.90;;;7.30;99.90;;;5.70;100.00;101895.34;4944314;28;20035;-82
2021/12/14 11:01:50;;;;;;;40.78;14.60;;;7.30;99.90;;;5.67;100.00;101890.16;4930980;28;20034;-81
2021/12/14 11:04:54;;;;;;;37.50;13.77;;;7.30;99.90;;;5.71;100.00;101897.97;4944719;28;20029;-81
2021/12/14 11:07:41;;;;;;;35.22;13.30;;;7.30;99.90;;;5.71;100.00;101891.88;4959660;28;20071;-82
2021/12/14 11:10:22;;;;;;;42.25;15.13;;;7.30;99.90;;;5.75;100.00;101888.38;4939057;28;20152;-82
2021/12/14 11:13:05;;;;;;;36.10;15.10;;;7.30;99.90;;;5.79;100.00;101899.66;4969729;28;20082;-81
2021/12/14 11:15:52;;;;;;;39.80;14.35;;;7.40;99.90;;;5.84;100.00;101892.66;4961829;28;20053;-81
2021/12/14 11:18:34;;;;;;;42.28;16.40;;;7.40;99.90;;;5.83;100.00;101891.78;4940683;28;20029;-81
2021/12/14 11:21:14;;;;;;;39.60;15.60;;;7.40;99.90;;;5.82;100.00;101890.03;4948098;28;20033;-81
2021/12/14 11:23:51;;;;;;;44.13;16.50;;;7.40;99.90;;;5.85;100.00;101884.81;4939389;28;20029;-81
2021/12/14 11:26:36;;;;;;;41.58;15.25;;;7.40;99.90;;;5.89;100.00;101890.84;4955876;28;20057;-82
2021/12/14 11:29:20;;;;;;;46.72;15.60;;;7.40;99.90;;;5.86;100.00;101889.16;4967811;28;20851;-82
2021/12/14 11:31:55;;;;;;;37.72;15.25;;;7.40;99.90;;;5.85;100.00;101889.16;4977156;28;20033;-80
2021/12/14 11:34:37;;;;;;;45.10;15.23;;;7.50;99.90;;;5.87;100.00;101876.94;4929841;28;20060;-81
2021/12/14 11:37:15;;;;;;;40.90;14.63;;;7.40;99.90;;;5.85;100.00;101890.03;4933971;28;20120;-81
2021/12/14 11:39:52;;;;;;;35.72;15.05;;;7.50;99.90;;;5.88;100.00;101890.00;4933283;28;20506;-81